Latest Weather Observations for Esperance

IDW60801

Issued at 1:02 am WST Saturday 1 August 2015 (issued every 30 minutes, with the page automatically refreshed every 10 minutes)

About weather observations | Map of weather stations | Latest weather observations for WA | Other Formats
Station Details ID: 009789 Name: ESPERANCE Lat: -33.83 Lon: 121.89 Height: 25.0 m
Data from the previous 72 hours. | See also: Recent months at Esperance
Date/Time
WST
Temp
°C
App
Temp
°C
Dew
Point
Rel
Hum
%
Delta-T
°C
Wind Press
QNH
hPa
Press
MSL
hPa
Rain
since 9 am
mm
Dir
 
Spd
km/h
Gust
km/h
Spd
kts
Gust
kts
01/01:00am 12.8 6.7 8.4 74 2.2 SE 30 46 16 25 1018.6 1018.6 14.4
01/12:44am 12.6 6.5 8.4 75 2.1 SE 30 48 16 26 1018.0 1018.0 14.2
01/12:30am 12.8 6.3 8.1 73 2.3 SE 32 46 17 25 1017.5 1017.5 14.2
01/12:00am 12.5 8.0 8.5 76 2.0 ESE 22 32 12 17 1018.8 1018.8 14.2
 
Date/Time
WST
Temp
°C
App
Temp
°C
Dew
Point
Rel
Hum
%
Delta-T
°C
Wind Press
QNH
hPa
Press
MSL
hPa
Rain
since 9 am
mm
Dir
 
Spd
km/h
Gust
km/h
Spd
kts
Gust
kts
31/11:30pm 12.4 7.5 8.6 77 1.9 SE 24 35 13 19 1018.5 1018.5 14.2
31/11:00pm 12.1 7.5 9.5 84 1.3 ESE 24 37 13 20 1018.3 1018.3 14.2
31/10:31pm 12.1 5.7 9.3 83 1.4 ESE 33 52 18 28 1016.8 1016.8 14.2
31/10:30pm 11.9 5.8 9.7 86 1.1 ESE 32 48 17 26 1016.9 1016.9 14.2
31/10:26pm 12.0 6.2 9.4 84 1.3 SE 30 41 16 22 1017.2 1017.2 14.0
31/10:05pm 11.8 6.1 9.8 87 1.0 SE 30 43 16 23 1018.4 1018.4 13.8
31/10:00pm 11.9 6.6 9.9 87 1.0 SE 28 41 15 22 1018.6 1018.6 13.6
31/09:30pm 12.2 6.3 10.5 89 0.9 SE 32 43 17 23 1019.1 1019.1 13.0
31/09:28pm 12.2 6.3 10.5 89 0.9 SE 32 43 17 23 1019.1 1019.1 13.0
31/09:00pm 12.6 9.2 11.3 92 0.7 SE 20 30 11 16 1019.2 1019.2 12.2
31/08:30pm 12.6 9.3 11.7 94 0.5 SE 20 32 11 17 1018.7 1018.7 11.6
31/08:25pm 12.6 9.0 11.7 94 0.5 SE 22 32 12 17 1018.4 1018.4 11.4
31/08:00pm 12.7 7.8 11.4 92 0.7 SE 28 41 15 22 1017.2 1017.2 11.2
31/07:30pm 12.5 7.8 11.9 96 0.3 SE 28 41 15 22 1017.2 1017.2 11.2
31/07:03pm 12.8 7.8 12.1 95 0.4 SE 30 44 16 24 1016.7 1016.7 10.6
31/07:00pm 12.9 7.8 12.0 94 0.5 SE 30 44 16 24 1016.7 1016.7 10.6
31/06:30pm 12.9 8.6 12.2 95 0.4 SE 26 37 14 20 1016.5 1016.5 9.8
31/06:00pm 12.3 11.2 11.9 97 0.2 ENE 9 13 5 7 1016.8 1016.8 6.6
31/05:30pm 12.5 11.4 11.9 96 0.3 ENE 9 17 5 9 1015.9 1015.9 5.4
31/05:10pm 12.7 11.2 12.0 95 0.4 E 11 17 6 9 1015.8 1015.8 4.8
31/05:00pm 12.7 11.2 12.0 95 0.4 E 11 17 6 9 1015.6 1015.6 4.8
31/04:30pm 12.8 11.4 12.1 95 0.4 E 11 19 6 10 1015.1 1015.2 4.8
31/04:00pm 12.9 10.8 12.3 96 0.3 E 15 22 8 12 1014.6 1014.7 4.6
31/03:30pm 13.0 9.5 12.1 94 0.5 ESE 22 32 12 17 1014.7 1014.8 4.4
31/03:18pm 13.0 8.8 12.3 95 0.4 SE 26 35 14 19 1014.6 1014.7 4.2
31/03:06pm 12.9 7.9 12.2 95 0.4 SE 30 48 16 26 1014.6 1014.7 3.8
31/03:03pm 12.9 8.3 12.3 96 0.3 SE 28 48 15 26 1014.4 1014.5 3.6
31/03:00pm 12.9 8.7 12.3 96 0.3 SE 26 35 14 19 1014.6 1014.7 3.6
31/02:34pm 13.6 8.7 12.7 94 0.5 SE 30 43 16 23 1014.6 1014.7 3.2
31/02:30pm 13.6 8.3 12.5 93 0.6 SE 32 48 17 26 1014.6 1014.7 3.2
31/02:25pm 13.7 8.4 12.4 92 0.7 SE 32 48 17 26 1014.5 1014.6 3.2
31/02:00pm 13.6 7.3 12.3 92 0.7 SE 37 50 20 27 1014.2 1014.3 3.2
31/01:55pm 13.6 7.2 12.1 91 0.8 SE 37 50 20 27 1014.1 1014.2 3.2
31/01:36pm 13.7 9.0 13.2 97 0.3 SSE 30 48 16 26 1014.0 1014.1 3.2
31/01:30pm 14.1 10.7 13.6 97 0.3 SE 24 35 13 19 1013.9 1014.0 2.8
31/01:19pm 15.5 15.1 14.1 91 0.8 WSW 9 15 5 8 1013.9 1014.0 1.2
31/01:00pm 15.8 15.3 13.9 88 1.1 WNW 9 13 5 7 1013.9 1014.0 1.0
31/12:53pm 15.7 15.2 13.9 89 1.0 WNW 9 17 5 9 1013.9 1014.0 1.0
31/12:30pm 15.6 14.3 13.8 89 1.0 W 13 19 7 10 1013.5 1013.5 1.0
31/12:00pm 15.4 14.1 13.6 89 1.0 WNW 13 20 7 11 1014.0 1014.1 1.0
31/11:30am 15.4 13.2 13.4 88 1.1 WNW 17 24 9 13 1014.5 1014.6 1.0
31/11:00am 15.5 13.4 13.7 89 1.0 WNW 17 22 9 12 1014.7 1014.8 1.0
31/10:30am 15.4 12.4 13.6 89 1.0 NW 22 30 12 16 1014.3 1014.4 1.0
31/10:00am 15.1 11.7 13.7 91 0.8 NW 24 32 13 17 1014.6 1014.7 0.8
31/09:30am 15.6 11.4 13.5 87 1.2 NW 28 39 15 21 1014.9 1015.0 0.2
31/09:00am 16.1 13.4 12.9 81 1.8 NW 19 26 10 14 1014.4 1014.5 0.4
31/08:30am 15.9 13.1 12.6 81 1.8 NW 19 26 10 14 1014.5 1014.6 0.4
31/08:00am 15.9 12.5 12.4 80 1.9 NW 22 28 12 15 1014.3 1014.4 0.4
31/07:30am 15.7 12.6 12.2 80 1.9 NW 20 32 11 17 1014.1 1014.2 0.4
31/07:00am 15.5 12.3 12.0 79 1.9 NW 20 28 11 15 1013.7 1013.7 0.4
31/06:30am 15.4 12.5 12.3 82 1.7 NW 19 26 10 14 1014.1 1014.2 0.4
31/06:00am 15.7 12.6 12.2 80 1.9 NW 20 28 11 15 1013.9 1014.0 0.4
31/05:30am 16.0 12.2 12.4 79 2.0 NW 24 32 13 17 1013.8 1013.9 0.4
31/05:00am 15.8 13.0 12.5 81 1.8 NW 19 28 10 15 1013.8 1013.9 0.4
31/04:30am 16.0 13.0 12.6 80 1.9 NW 20 30 11 16 1013.7 1013.7 0.4
31/04:00am 16.2 12.1 12.6 79 2.0 NNW 26 35 14 19 1013.7 1013.7 0.4
31/03:30am 16.0 13.1 12.9 82 1.7 NNW 20 28 11 15 1013.9 1014.0 0.4
31/03:00am 15.9 13.3 13.2 84 1.5 NNW 19 26 10 14 1014.0 1014.1 0.4
31/02:30am 15.9 13.8 13.6 86 1.3 NNW 17 22 9 12 1014.4 1014.5 0.4
31/02:00am 15.5 13.5 13.9 90 0.9 N 17 22 9 12 1014.7 1014.8 0.4
31/01:30am 16.2 13.6 13.9 86 1.3 NNW 20 28 11 15 1015.2 1015.3 0.4
31/01:00am 15.8 13.2 13.8 88 1.1 N 20 30 11 16 1015.7 1015.7 0.4
31/12:30am 15.5 12.9 13.9 90 0.9 N 20 30 11 16 1016.0 1016.0 0.4
31/12:00am 14.8 12.6 13.4 91 0.8 N 17 28 9 15 1016.4 1016.4 0.4
 
Date/Time
WST
Temp
°C
App
Temp
°C
Dew
Point
Rel
Hum
%
Delta-T
°C
Wind Press
QNH
hPa
Press
MSL
hPa
Rain
since 9 am
mm
Dir
 
Spd
km/h
Gust
km/h
Spd
kts
Gust
kts
30/11:30pm 14.5 12.6 13.0 91 0.8 NNE 15 19 8 10 1017.0 1017.0 0.4
30/11:00pm 14.4 12.5 12.9 91 0.8 N 15 20 8 11 1017.5 1017.5 0.4
30/10:30pm 14.1 12.4 12.6 91 0.8 NNE 13 17 7 9 1018.1 1018.1 0.4
30/10:00pm 13.7 12.4 12.4 92 0.7 NE 11 15 6 8 1018.6 1018.6 0.4
30/09:30pm 13.5 12.2 12.4 93 0.6 NE 11 15 6 8 1019.4 1019.4 0.2
30/09:00pm 13.3 12.3 12.4 94 0.5 NE 9 13 5 7 1019.7 1019.7 0.2
30/08:30pm 13.4 12.4 12.3 93 0.6 ENE 9 15 5 8 1020.1 1020.1 0.2
30/08:00pm 13.5 12.1 12.2 92 0.7 ENE 11 17 6 9 1020.2 1020.2 0.2
30/07:30pm 13.6 12.2 12.3 92 0.7 ENE 11 17 6 9 1020.3 1020.3 0.2
30/07:00pm 13.7 12.4 12.4 92 0.7 ENE 11 17 6 9 1020.6 1020.6 0.2
30/06:30pm 13.8 12.9 12.5 92 0.7 ENE 9 15 5 8 1020.7 1020.7 0.2
30/06:00pm 14.2 13.3 12.7 91 0.8 E 9 13 5 7 1020.8 1020.8 0.2
30/05:30pm 14.3 13.8 12.8 91 0.8 E 7 11 4 6 1021.0 1021.0 0.2
30/05:00pm 14.8 14.4 13.0 89 1.0 E 7 13 4 7 1020.9 1020.9 0.2
30/04:30pm 15.3 14.5 12.9 85 1.3 E 9 13 5 7 1021.0 1021.0 0.2
30/04:00pm 15.6 14.8 12.9 84 1.5 E 9 15 5 8 1021.1 1021.1 0.2
30/03:30pm 15.7 14.2 13.0 84 1.5 ESE 13 17 7 9 1021.2 1021.2 0.2
30/03:00pm 15.8 13.8 12.7 82 1.7 ESE 15 19 8 10 1021.7 1021.7 0.2
30/02:30pm 16.2 15.4 13.0 81 1.8 ESE 9 13 5 7 1022.1 1022.1 0.2
30/02:00pm 15.7 14.0 12.4 81 1.8 ESE 13 17 7 9 1022.0 1022.0 0.2
30/01:30pm 15.4 13.3 12.3 82 1.7 ESE 15 19 8 10 1022.1 1022.1 0.2
30/01:00pm 15.7 14.0 12.6 82 1.7 SE 13 19 7 10 1022.4 1022.4 0.2
30/12:30pm 15.9 14.6 12.4 80 1.9 SE 11 15 6 8 1022.7 1022.7 0.2
30/12:00pm 15.7 14.8 12.6 82 1.7 ESE 9 13 5 7 1022.9 1022.9 0.2
30/11:30am 15.8 15.3 12.5 81 1.8 ESE 7 11 4 6 1023.2 1023.2 0.2
30/11:00am 15.7 14.5 12.8 83 1.6 ESE 11 15 6 8 1023.6 1023.6 0.2
30/10:30am 15.2 13.5 12.6 84 1.4 ESE 13 17 7 9 1023.5 1023.5 0.2
30/10:00am 14.9 13.7 12.7 87 1.2 ESE 11 20 6 11 1023.6 1023.6 0.2
30/09:30am 14.8 14.2 13.5 92 0.7 ENE 9 13 5 7 1023.7 1023.7 0.2
30/09:00am 14.3 13.2 13.2 93 0.6 ESE 11 15 6 8 1023.7 1023.7 1.8
30/08:30am 13.9 13.6 13.4 97 0.3 NE 7 9 4 5 1023.7 1023.7 1.8
30/08:00am 13.4 13.0 13.0 97 0.2 NE 7 11 4 6 1023.1 1023.1 1.8
30/07:33am 13.7 13.4 13.2 97 0.3 ENE 7 9 4 5 1022.8 1022.8 1.6
30/07:30am 13.6 13.2 13.1 97 0.3 ENE 7 11 4 6 1022.8 1022.8 1.6
30/07:00am 13.4 12.9 12.8 96 0.3 E 7 13 4 7 1022.4 1022.4 1.6
30/06:30am 12.8 12.4 12.4 97 0.2 SW 6 11 3 6 1022.2 1022.2 1.6
30/06:00am 12.0 10.8 11.6 97 0.2 NW 9 9 5 5 1021.8 1021.8 1.6
30/05:30am 11.9 10.3 11.5 97 0.2 WNW 11 15 6 8 1021.7 1021.7 1.6
30/05:17am 11.8 9.8 11.4 97 0.2 WNW 13 17 7 9 1021.6 1021.6 1.6
30/05:04am 11.9 9.9 11.5 97 0.2 W 13 19 7 10 1021.4 1021.4 1.6
30/05:00am 11.8 9.7 11.2 96 0.3 W 13 19 7 10 1021.4 1021.4 1.6
30/04:53am 11.7 9.6 11.3 97 0.2 WNW 13 17 7 9 1021.4 1021.4 0.6
30/04:30am 11.6 9.8 11.0 96 0.3 WNW 11 15 6 8 1020.9 1020.9 0.0
30/04:00am 11.9 9.0 11.1 95 0.4 NW 17 24 9 13 1020.8 1020.8 0.0
30/03:30am 12.0 9.5 11.0 94 0.5 NW 15 20 8 11 1020.8 1020.8 0.0
30/03:00am 12.0 9.9 11.0 94 0.5 NW 13 17 7 9 1020.5 1020.5 0.0
30/02:30am 12.5 10.1 11.4 93 0.6 WNW 15 19 8 10 1020.5 1020.5 0.0
30/02:00am 12.7 9.9 11.2 91 0.8 WNW 17 22 9 12 1020.7 1020.7 0.0
30/01:30am 12.5 10.0 11.2 92 0.7 WNW 15 19 8 10 1020.5 1020.5 0.0
30/01:00am 12.5 9.7 11.2 92 0.7 WNW 17 22 9 12 1020.2 1020.2 0.0
30/12:30am 11.8 9.6 10.8 94 0.5 NW 13 17 7 9 1020.0 1020.0 0.0
30/12:00am 11.8 9.2 10.8 94 0.5 NW 15 19 8 10 1019.8 1019.8 0.0
 
Date/Time
WST
Temp
°C
App
Temp
°C
Dew
Point
Rel
Hum
%
Delta-T
°C
Wind Press
QNH
hPa
Press
MSL
hPa
Rain
since 9 am
mm
Dir
 
Spd
km/h
Gust
km/h
Spd
kts
Gust
kts
29/11:30pm 11.5 9.6 10.5 94 0.5 WNW 11 15 6 8 1019.8 1019.8 0.0
29/11:00pm 12.3 10.0 10.6 89 0.9 WNW 13 17 7 9 1019.9 1019.9 0.0
29/10:30pm 12.1 9.8 10.5 90 0.8 NW 13 19 7 10 1020.0 1020.0 0.0
29/10:00pm 12.3 10.1 10.8 90 0.8 NW 13 15 7 8 1019.6 1019.6 0.0
29/09:30pm 12.8 11.4 10.9 88 1.0 NW 9 15 5 8 1019.4 1019.4 0.0
29/09:00pm 12.2 11.4 11.1 93 0.6 NNW 6 9 3 5 1019.7 1019.7 0.0
29/08:30pm 12.7 11.4 11.4 92 0.7 NW 9 11 5 6 1019.7 1019.7 0.0
29/08:00pm 12.9 11.7 11.6 92 0.7 NW 9 11 5 6 1019.5 1019.5 0.0
29/07:30pm 13.3 12.2 12.0 92 0.7 NNW 9 11 5 6 1018.9 1018.9 0.0
29/07:00pm 13.9 12.9 12.2 89 0.9 N 9 11 5 6 1019.0 1019.0 0.0
29/06:30pm 14.4 13.8 12.4 88 1.1 N 7 9 4 5 1018.7 1018.7 0.0
29/06:00pm 15.0 14.6 12.4 84 1.4 N 6 7 3 4 1018.5 1018.5 0.0
29/05:30pm 15.2 15.9 12.3 83 1.6 CALM 0 0 0 0 1018.5 1018.5 0.0
29/05:00pm 15.2 14.6 12.3 83 1.6 SW 7 9 4 5 1018.4 1018.4 0.0
29/04:30pm 15.5 15.0 12.2 81 1.8 SSW 6 7 3 4 1018.1 1018.1 0.0
29/04:00pm 15.9 15.4 12.2 78 2.0 SW 6 7 3 4 1017.6 1017.6 0.0
29/03:30pm 16.3 15.6 12.1 76 2.3 WNW 7 11 4 6 1017.7 1017.7 0.0
29/03:00pm 16.1 14.9 11.7 75 2.4 WSW 9 13 5 7 1017.3 1017.3 0.0
29/02:30pm 16.8 15.6 11.6 71 2.8 WSW 9 13 5 7 1016.9 1016.9 0.0
29/02:00pm 16.8 15.9 11.4 70 2.9 WSW 7 11 4 6 1016.8 1016.8 0.0
29/01:30pm 16.9 15.7 11.6 71 2.9 WSW 9 13 5 7 1016.8 1016.8 0.0
29/01:00pm 16.7 15.2 10.7 67 3.2 WSW 9 15 5 8 1017.0 1017.0 0.0
29/12:30pm 16.2 14.4 11.0 71 2.8 WSW 11 17 6 9 1017.5 1017.5 0.0
29/12:00pm 15.9 13.6 10.6 71 2.8 WSW 13 20 7 11 1017.7 1017.7 0.0
29/11:30am 16.4 13.8 10.8 69 3.0 WNW 15 22 8 12 1018.1 1018.1 0.0
29/11:00am 16.6 13.7 11.0 69 3.0 NW 17 24 9 13 1018.3 1018.3 0.0
29/10:30am 15.4 12.7 10.5 72 2.6 NW 15 20 8 11 1018.3 1018.3 0.0
29/10:00am 14.8 12.2 10.6 76 2.2 NW 15 20 8 11 1018.6 1018.6 0.0
29/09:30am 13.6 10.8 10.1 79 1.8 NW 15 19 8 10 1018.7 1018.7 0.0
29/09:00am 12.9 10.1 10.0 82 1.5 NW 15 19 8 10 1018.4 1018.4 0.0
29/08:30am 11.5 8.2 9.7 89 0.9 NW 17 20 9 11 1018.2 1018.2 0.0
29/08:00am 10.8 7.4 9.2 90 0.8 NW 17 20 9 11 1018.2 1018.2 0.0
29/07:30am 9.9 6.4 8.9 93 0.5 NW 17 20 9 11 1018.0 1018.0 0.0
29/07:00am 9.1 6.0 8.7 97 0.2 NW 15 19 8 10 1017.6 1017.6 0.0
29/06:30am 9.1 6.0 8.7 97 0.2 NW 15 19 8 10 1017.4 1017.4 0.0
29/06:00am 9.3 6.2 8.7 96 0.3 NW 15 19 8 10 1017.1 1017.1 0.0
29/05:30am 9.3 6.5 8.7 96 0.3 WNW 13 17 7 9 1016.8 1016.8 0.0
29/05:00am 8.9 6.5 8.5 97 0.2 NW 11 13 6 7 1016.6 1016.6 0.0
29/04:30am 9.4 7.4 8.8 96 0.3 NW 9 11 5 6 1016.6 1016.6 0.0
29/04:00am 10.2 8.0 9.2 93 0.5 NNW 11 17 6 9 1016.5 1016.5 0.0
29/03:30am 10.6 8.4 9.4 92 0.6 NNW 11 15 6 8 1016.4 1016.4 0.0
29/03:00am 10.9 8.7 9.3 90 0.8 N 11 15 6 8 1016.6 1016.6 0.0
29/02:30am 11.2 9.1 9.6 90 0.8 NNW 11 15 6 8 1016.8 1016.8 0.0
29/02:00am 11.7 9.1 9.5 86 1.1 NNW 13 17 7 9 1016.9 1016.9 0.0
29/01:30am 12.4 9.6 8.4 76 2.0 NNW 13 20 7 11 1017.2 1017.2 0.0

Other Formats:

Comma delimited format used in spreadsheet applications
http://www.bom.gov.au/fwo/IDW60801/IDW60801.94638.axf

JavaScript Object Notation format (JSON) in row-major order
http://www.bom.gov.au/fwo/IDW60801/IDW60801.94638.json